logo
Rechercher aéroport 
image banner adimage banner adimage banner ad
image banner ad

HALL - Lalibella

Situé à Lalibella, Ethiopia

ICAO - HALL, IATA - LLI

Données fournies par Airmate  

Information générale

Coordonnées: N11°58'26" E38°59'28"
Élévation : 6431 feet MSL.
Variation magnétique : 3° East
Voir autres Aéroports à Amara

Données opérationnelles

Special qualification required
Heure actuelle UTC:
Heure actuelle locale:
Météo à : - ( 0 km )
METAR: YFRT 232128Z AUTO 27019KT 9999 // BKN014 14/11 Q1007 RF00.0/000.0
Voir NOTAMs / SUP AIP / TFR affectant cet aéroport [VIEW]
Fréquences de communication: [VIEW]

Pistes:

Identifiant RWYQFULongueur (ft)Largeur (ft)SurfaceLDA (ft)
1096°7874148ASP
28276°7874148ASP

Coordonnées de l'aéroport

Adresse: Lalibella Ethiopia

Vue satellite de HALL